Time;durP1;ratioP1;P1;durP2;ratioP2;P2;SDS_P1;SDS_P2;PMS_P1;PMS_P2;Temp;Humidity;BMP_temperature;BMP_pressure;BME280_temperature;BME280_humidity;BME280_pressure;Samples;Min_cycle;Max_cycle;Signal;HPM_P1;HPM_P2
2022/11/22 00:03:44;;;;;;;3.35;1.40;;;;;;;8.28;100.00;98265.84;8320175;28;20041;-49
2022/11/22 00:07:45;;;;;;;2.88;1.00;;;;;;;8.31;100.00;98267.34;8302574;28;20042;-49
2022/11/22 00:11:45;;;;;;;2.55;1.00;;;;;;;8.24;100.00;98261.00;8330783;28;20034;-48
2022/11/22 00:15:58;;;;;;;2.35;0.70;;;;;;;8.17;100.00;98239.31;8321586;28;20091;-49
2022/11/22 00:19:59;;;;;;;3.83;0.95;;;;;;;8.21;100.00;98250.56;8321143;28;20608;-50
2022/11/22 00:23:59;;;;;;;1.92;0.93;;;;;;;8.22;100.00;98257.63;8334967;28;20041;-51
2022/11/22 00:28:00;;;;;;;4.88;1.10;;;;;;;8.19;100.00;98261.53;8319943;28;20120;-49
2022/11/22 00:32:01;;;;;;;1.58;1.10;;;;;;;8.15;100.00;98257.53;8321401;28;20124;-49
2022/11/22 00:36:02;;;;;;;3.25;0.90;;;;;;;8.09;100.00;98253.69;8352478;28;20041;-49
2022/11/22 00:40:04;;;;;;;2.15;0.70;;;;;;;8.05;100.00;98257.75;8320306;28;20095;-48
2022/11/22 00:44:04;;;;;;;1.70;0.90;;;;;;;8.02;100.00;98263.50;8320071;28;20263;-49
2022/11/22 00:48:05;;;;;;;3.92;0.90;;;;;;;7.98;100.00;98256.81;8318612;28;20037;-50
2022/11/22 00:52:06;;;;;;;4.97;1.05;;;;;;;7.96;100.00;98258.84;8320018;28;20034;-49
2022/11/22 00:56:06;;;;;;;3.15;1.02;;;;;;;7.96;100.00;98272.28;8320293;28;20033;-49
2022/11/22 01:00:09;;;;;;;1.25;0.70;;;;;;;7.91;100.00;98253.19;8319782;28;20124;-50
2022/11/22 01:04:09;;;;;;;1.10;0.80;;;;;;;7.90;100.00;98269.50;8319538;28;20369;-49
2022/11/22 01:08:10;;;;;;;0.70;0.50;;;;;;;7.89;100.00;98273.19;8318737;28;20412;-51
2022/11/22 01:12:11;;;;;;;2.03;0.60;;;;;;;7.84;100.00;98275.59;8318112;28;20057;-49
2022/11/22 01:16:13;;;;;;;2.63;0.60;;;;;;;7.84;100.00;98281.78;8318396;28;20037;-50
2022/11/22 01:20:14;;;;;;;2.38;0.60;;;;;;;7.83;100.00;98282.81;8317760;28;20111;-49
2022/11/22 01:24:14;;;;;;;1.77;0.50;;;;;;;7.82;100.00;98283.84;8318887;28;20037;-51
2022/11/22 01:28:16;;;;;;;2.45;1.20;;;;;;;7.68;100.00;98279.19;8318570;28;20045;-58
2022/11/22 01:32:17;;;;;;;0.95;0.65;;;;;;;7.57;100.00;98279.59;8318516;28;20037;-50
2022/11/22 01:36:17;;;;;;;1.48;0.60;;;;;;;7.63;100.00;98268.13;8317993;28;20060;-49
2022/11/22 01:40:18;;;;;;;2.85;0.38;;;;;;;7.54;100.00;98288.00;8318344;28;20056;-49
2022/11/22 01:44:25;;;;;;;3.97;1.02;;;;;;;7.42;100.00;98285.91;8318975;28;20056;-52
2022/11/22 01:52:46;;;;;;;4.15;1.00;;;;;;;7.35;100.00;98307.25;8315331;28;20394;-48
2022/11/22 01:56:52;;;;;;;2.50;0.88;;;;;;;7.28;100.00;98306.28;8314249;28;20289;-47
2022/11/22 02:00:54;;;;;;;2.35;0.98;;;;;;;6.98;100.00;98309.72;8312681;28;20113;-47
2022/11/22 02:05:00;;;;;;;7.95;1.60;;;;;;;6.80;100.00;98321.72;8313849;28;20048;-48
2022/11/22 02:09:06;;;;;;;3.95;1.40;;;;;;;6.93;100.00;98322.00;8313750;28;20049;-47
2022/11/22 02:13:09;;;;;;;2.03;0.90;;;;;;;6.96;100.00;98322.53;8312632;28;20581;-49
2022/11/22 02:17:10;;;;;;;4.88;0.88;;;;;;;7.03;100.00;98333.41;8310327;28;20050;-48
2022/11/22 02:21:10;;;;;;;2.75;0.60;;;;;;;6.94;100.00;98337.94;8312550;28;20049;-49
2022/11/22 02:25:31;;;;;;;2.33;0.90;;;;;;;6.90;100.00;98342.00;8313554;28;20040;-47
2022/11/22 02:29:33;;;;;;;5.75;1.38;;;;;;;6.78;100.00;98346.03;8313365;28;20059;-47
2022/11/22 02:33:34;;;;;;;9.05;1.15;;;;;;;6.73;100.00;98328.75;8314154;28;20477;-48
2022/11/22 02:37:35;;;;;;;16.77;1.52;;;;;;;6.78;100.00;98338.00;8313675;28;20494;-48
2022/11/22 02:41:36;;;;;;;7.35;0.88;;;;;;;6.75;100.00;98341.00;8313353;28;20402;-47
2022/11/22 02:45:37;;;;;;;7.63;1.27;;;;;;;6.70;100.00;98340.66;8313304;28;20037;-50
2022/11/22 02:49:38;;;;;;;12.77;1.45;;;;;;;6.66;100.00;98347.41;8312243;28;20048;-47
2022/11/22 02:53:38;;;;;;;12.43;1.70;;;;;;;6.64;100.00;98353.91;8313832;28;20142;-48
2022/11/22 02:57:39;;;;;;;7.55;1.35;;;;;;;6.43;100.00;98351.75;8312361;28;20045;-48
2022/11/22 03:01:41;;;;;;;15.95;2.58;;;;;;;6.38;100.00;98359.50;8304046;28;20037;-47
2022/11/22 03:05:41;;;;;;;11.52;2.10;;;;;;;6.32;100.00;98362.84;8289602;28;20092;-47
2022/11/22 03:09:42;;;;;;;14.32;2.30;;;;;;;6.50;100.00;98368.03;8290688;28;20096;-48
2022/11/22 03:13:43;;;;;;;23.02;2.92;;;;;;;6.53;100.00;98381.13;8291141;28;20038;-47
2022/11/22 03:17:44;;;;;;;24.00;2.78;;;;;;;6.39;100.00;98382.63;8289817;28;20172;-49
2022/11/22 03:21:45;;;;;;;12.43;1.88;;;;;;;6.38;100.00;98388.16;8290890;28;20033;-48
2022/11/22 03:25:45;;;;;;;12.40;2.05;;;;;;;6.30;100.00;98391.66;8289386;28;20107;-47
2022/11/22 03:29:46;;;;;;;14.55;2.13;;;;;;;6.28;100.00;98390.97;8289612;28;20042;-48
2022/11/22 03:33:47;;;;;;;11.32;1.88;;;;;;;6.20;100.00;98399.03;8290478;28;20064;-48
2022/11/22 03:37:48;;;;;;;20.35;2.17;;;;;;;5.95;100.00;98405.34;8290532;28;20034;-49
2022/11/22 03:41:49;;;;;;;12.00;2.13;;;;;;;6.16;100.00;98400.34;8288502;28;20057;-49
2022/11/22 03:45:50;;;;;;;14.48;2.22;;;;;;;6.15;100.00;98400.50;8289956;28;20080;-48
2022/11/22 03:49:51;;;;;;;14.30;2.40;;;;;;;6.17;100.00;98415.47;8287900;28;20038;-49
2022/11/22 03:53:52;;;;;;;8.98;1.73;;;;;;;6.15;100.00;98406.72;8290146;28;20100;-48
2022/11/22 03:57:53;;;;;;;12.13;2.05;;;;;;;6.12;100.00;98401.69;8289458;28;20522;-48
2022/11/22 04:01:53;;;;;;;11.50;2.42;;;;;;;5.82;100.00;98404.94;8288805;28;20434;-49
2022/11/22 04:05:54;;;;;;;10.20;1.98;;;;;;;5.56;100.00;98410.38;8286507;28;20045;-48
2022/11/22 04:09:55;;;;;;;7.05;1.65;;;;;;;5.26;100.00;98413.56;8289065;28;20042;-48
2022/11/22 04:15:11;;;;;;;15.05;2.55;;;;;;;5.14;100.00;98392.53;8275871;28;20104;-49
2022/11/22 04:18:16;;;;;;;9.02;1.77;;;;;;;5.29;100.00;98407.03;8286869;28;20057;-48
2022/11/22 04:22:17;;;;;;;19.70;2.30;;;;;;;5.11;100.00;98404.44;8284345;28;20042;-48
2022/11/22 04:26:18;;;;;;;12.10;2.35;;;;;;;5.08;100.00;98404.75;8297427;28;20095;-51
2022/11/22 04:30:19;;;;;;;10.38;2.63;;;;;;;5.16;100.00;98407.44;8279594;28;20389;-50
2022/11/22 04:34:20;;;;;;;13.25;1.83;;;;;;;4.67;100.00;98407.28;8247877;28;20050;-54
2022/11/22 04:38:21;;;;;;;15.82;2.13;;;;;;;4.39;100.00;98411.06;8282860;28;20084;-51
2022/11/22 04:46:43;;;;;;;22.33;2.83;;;;;;;4.84;100.00;98417.09;8279285;28;20096;-54
2022/11/22 04:55:05;;;;;;;17.30;2.85;;;;;;;5.05;100.00;98431.81;8286857;28;20099;-51
2022/11/22 04:59:06;;;;;;;14.93;2.30;;;;;;;4.97;100.00;98422.91;8282845;28;20450;-50
2022/11/22 05:03:07;;;;;;;15.82;2.80;;;;;;;5.02;100.00;98436.66;8265474;28;20043;-50
2022/11/22 05:07:07;;;;;;;18.38;2.22;;;;;;;5.29;100.00;98439.16;8280597;28;20415;-50
2022/11/22 05:11:08;;;;;;;14.43;2.20;;;;;;;5.19;100.00;98443.81;8281809;28;20041;-53
2022/11/22 05:15:10;;;;;;;10.80;2.25;;;;;;;5.08;100.00;98446.72;8292111;28;20037;-52
2022/11/22 05:19:11;;;;;;;18.52;2.40;;;;;;;5.04;100.00;98442.69;8284992;28;20041;-54
2022/11/22 05:24:13;;;;;;;12.38;2.55;;;;;;;5.13;100.00;98450.63;8285674;28;20042;-51
2022/11/22 05:27:33;;;;;;;16.33;2.25;;;;;;;4.89;100.00;98457.63;8283846;28;20562;-50
2022/11/22 05:31:36;;;;;;;22.20;2.75;;;;;;;4.90;100.00;98459.31;8281667;28;20699;-50
2022/11/22 05:35:36;;;;;;;12.40;2.67;;;;;;;4.98;100.00;98451.34;8283007;28;20104;-50
2022/11/22 05:39:37;;;;;;;12.32;2.30;;;;;;;4.91;100.00;98455.66;8281766;28;20038;-48
2022/11/22 05:43:38;;;;;;;12.52;2.47;;;;;;;4.99;100.00;98463.72;8284178;28;20102;-49
2022/11/22 05:48:35;;;;;;;14.27;2.25;;;;;;;4.90;100.00;98457.47;8281238;28;20499;-48
2022/11/22 05:52:36;;;;;;;12.50;2.00;;;;;;;4.80;100.00;98451.38;8278107;28;20571;-48
2022/11/22 05:56:37;;;;;;;20.10;2.80;;;;;;;4.71;100.00;98455.00;8281804;28;20064;-49
2022/11/22 06:00:38;;;;;;;14.73;3.22;;;;;;;4.66;100.00;98465.31;8280974;28;20124;-49
2022/11/22 06:04:38;;;;;;;13.73;2.70;;;;;;;4.61;100.00;98469.44;8292885;28;20045;-49
2022/11/22 06:08:42;;;;;;;16.98;2.72;;;;;;;4.64;100.00;98469.13;8284008;28;20131;-48
2022/11/22 06:12:42;;;;;;;14.93;2.60;;;;;;;4.65;100.00;98476.16;8285210;28;20120;-48
2022/11/22 06:16:43;;;;;;;18.30;2.60;;;;;;;4.59;100.00;98461.56;8285306;28;20037;-49
2022/11/22 06:20:44;;;;;;;12.45;2.15;;;;;;;4.73;100.00;98462.88;8284822;28;20034;-48
2022/11/22 06:24:44;;;;;;;10.85;2.17;;;;;;;4.94;100.00;98471.41;8284553;28;20049;-48
2022/11/22 06:28:47;;;;;;;13.27;2.28;;;;;;;5.02;100.00;98474.13;8281464;28;20141;-48
2022/11/22 06:32:47;;;;;;;13.38;2.20;;;;;;;5.13;100.00;98471.22;8282851;28;20050;-48
2022/11/22 06:36:48;;;;;;;12.35;2.88;;;;;;;5.04;100.00;98478.34;8265269;28;20514;-50
2022/11/22 06:40:48;;;;;;;17.25;2.50;;;;;;;5.19;100.00;98475.94;8289716;28;20096;-49
2022/11/22 06:44:49;;;;;;;10.73;2.55;;;;;;;5.22;100.00;98465.72;8287945;28;20120;-50
2022/11/22 06:48:50;;;;;;;17.67;3.40;;;;;;;5.39;100.00;98482.75;8287734;28;20088;-48
2022/11/22 06:52:52;;;;;;;6.72;2.03;;;;;;;5.37;100.00;98480.22;8290736;28;20046;-49
2022/11/22 06:56:53;;;;;;;17.95;3.63;;;;;;;5.54;100.00;98475.81;8292417;28;20037;-48
2022/11/22 07:01:03;;;;;;;10.98;1.83;;;;;;;5.97;100.00;98478.41;8292143;28;20490;-49
2022/11/22 07:05:04;;;;;;;7.22;1.38;;;;;;;6.48;97.58;98472.88;8292189;28;20042;-49
2022/11/22 07:09:07;;;;;;;12.23;1.45;;;;;;;6.60;95.78;98476.91;8289563;28;20499;-52
2022/11/22 07:13:08;;;;;;;7.25;1.95;;;;;;;6.46;95.92;98469.50;8289121;28;20129;-49
2022/11/22 07:17:08;;;;;;;10.93;1.85;;;;;;;6.20;97.71;98495.59;8287987;28;20513;-48
2022/11/22 07:21:12;;;;;;;13.75;2.00;;;;;;;5.96;99.51;98495.50;8282431;28;20042;-51
2022/11/22 07:25:13;;;;;;;17.75;2.35;;;;;;;5.79;100.00;98496.38;8284224;28;20507;-49
2022/11/22 07:29:14;;;;;;;10.43;1.88;;;;;;;5.74;100.00;98509.44;8294123;28;20607;-49
2022/11/22 07:33:15;;;;;;;9.77;1.92;;;;;;;5.74;100.00;98525.53;8283639;28;20046;-53
2022/11/22 07:37:15;;;;;;;10.07;2.55;;;;;;;5.70;100.00;98524.13;8278393;28;20041;-51
2022/11/22 07:41:17;;;;;;;9.93;1.95;;;;;;;5.68;100.00;98526.16;8281867;28;20082;-49
2022/11/22 07:45:18;;;;;;;8.93;2.72;;;;;;;5.76;100.00;98528.88;8273797;28;20450;-49
2022/11/22 07:49:19;;;;;;;11.88;3.38;;;;;;;5.86;100.00;98529.66;8274498;28;20065;-49
2022/11/22 07:53:19;;;;;;;11.52;3.95;;;;;;;5.89;100.00;98530.16;8261503;28;20038;-51
2022/11/22 07:57:20;;;;;;;23.65;3.13;;;;;;;6.01;99.67;98541.47;8262443;28;20045;-49
2022/11/22 08:01:22;;;;;;;12.25;2.55;;;;;;;6.02;99.32;98535.09;8294248;28;20038;-49
2022/11/22 08:05:22;;;;;;;13.73;2.00;;;;;;;6.02;99.83;98529.72;8293131;28;20069;-50
2022/11/22 08:09:23;;;;;;;13.88;2.25;;;;;;;6.23;99.48;98538.19;8292860;28;20045;-48
2022/11/22 08:13:24;;;;;;;12.73;2.70;;;;;;;6.45;98.46;98550.16;8293203;28;20045;-49
2022/11/22 08:17:25;;;;;;;11.82;1.77;;;;;;;6.69;97.62;98550.25;8292462;28;20108;-53
2022/11/22 08:21:25;;;;;;;10.13;1.85;;;;;;;7.02;95.75;98551.97;8281114;28;20042;-50
2022/11/22 08:25:26;;;;;;;17.45;2.75;;;;;;;7.37;94.21;98544.44;8291062;28;20042;-50
2022/11/22 08:29:27;;;;;;;13.82;1.63;;;;;;;7.61;93.27;98549.78;8291167;28;20072;-53
2022/11/22 08:33:28;;;;;;;7.50;1.73;;;;;;;7.92;91.68;98550.75;8290402;28;20034;-53
2022/11/22 08:37:29;;;;;;;13.40;4.10;;;;;;;8.83;88.88;98554.59;8290538;28;20049;-51
2022/11/22 08:41:29;;;;;;;4.40;1.38;;;;;;;9.86;81.64;98554.75;8292059;28;20045;-51
2022/11/22 08:45:30;;;;;;;7.43;1.35;;;;;;;10.82;79.59;98552.78;8290555;28;20038;-52
2022/11/22 08:49:31;;;;;;;5.85;1.13;;;;;;;11.55;76.02;98549.78;8291567;28;20038;-51
2022/11/22 08:53:33;;;;;;;5.05;1.10;;;;;;;11.71;74.28;98553.09;8292144;28;20038;-51
2022/11/22 08:57:33;;;;;;;9.13;0.93;;;;;;;12.06;73.15;98553.16;8291372;28;20034;-53
2022/11/22 09:01:34;;;;;;;3.58;0.88;;;;;;;11.92;71.57;98554.09;8289639;28;20042;-53
2022/11/22 09:05:35;;;;;;;6.25;1.50;;;;;;;12.12;70.80;98557.78;8290573;28;20103;-51
2022/11/22 09:09:35;;;;;;;6.20;1.38;;;;;;;11.93;71.72;98565.56;8289899;28;20212;-52
2022/11/22 09:13:37;;;;;;;7.78;1.40;;;;;;;10.33;76.41;98567.94;8290561;28;20499;-54
2022/11/22 09:17:37;;;;;;;8.63;1.38;;;;;;;9.65;80.42;98559.19;8289950;28;20421;-51
2022/11/22 09:21:38;;;;;;;6.97;1.30;;;;;;;9.47;82.29;98564.06;8290880;28;20042;-54
2022/11/22 09:25:39;;;;;;;7.82;1.40;;;;;;;9.01;84.53;98565.94;8290549;28;20033;-53
2022/11/22 09:29:39;;;;;;;5.95;1.05;;;;;;;8.96;86.74;98575.53;8290816;28;20454;-51
2022/11/22 09:33:45;;;;;;;6.68;1.58;;;;;;;8.85;87.97;98574.13;8291210;28;20407;-50
2022/11/22 09:37:46;;;;;;;10.48;1.58;;;;;;;8.95;87.86;98573.88;8289850;28;20041;-50
2022/11/22 09:42:14;;;;;;;11.57;1.98;;;;;;;9.15;86.56;98569.72;8290628;28;20045;-50
2022/11/22 09:51:02;;;;;;;9.93;2.15;;;;;;;9.82;84.64;98558.00;8410811;27;20402;-49
2022/11/22 09:55:16;;;;;;;4.25;1.30;;;;;;;9.75;83.93;98557.91;8418802;27;20047;-49
2022/11/22 09:59:30;;;;;;;5.85;1.30;;;;;;;9.54;86.06;98560.47;8400335;27;20044;-50
2022/11/22 10:03:42;;;;;;;5.85;1.60;;;;;;;9.49;87.09;98543.16;8399592;27;20036;-50
2022/11/22 10:07:50;;;;;;;4.55;0.90;;;;;;;9.54;86.25;98535.34;8405759;27;20112;-49
2022/11/22 10:12:02;;;;;;;4.88;1.10;;;;;;;9.59;86.09;98541.03;8400735;27;20071;-50
2022/11/22 10:16:14;;;;;;;7.95;0.95;;;;;;;9.61;85.33;98528.22;8400572;28;20045;-49
2022/11/22 10:20:22;;;;;;;3.22;0.95;;;;;;;9.56;85.60;98541.41;8399883;28;20124;-50
2022/11/22 10:24:22;;;;;;;8.48;1.10;;;;;;;9.63;84.68;98531.53;8400575;28;20036;-52
2022/11/22 10:28:51;;;;;;;6.70;1.15;;;;;;;9.68;84.71;98526.44;8399851;27;20055;-51
2022/11/22 10:33:17;;;;;;;3.53;0.82;;;;;;;9.76;85.62;98520.97;8399972;27;20077;-50
2022/11/22 10:37:57;;;;;;;2.72;0.63;;;;;;;9.94;83.33;98508.78;8399171;27;20367;-49
2022/11/22 10:42:17;;;;;;;2.50;0.80;;;;;;;10.20;81.42;98500.25;8399791;27;20120;-49
2022/11/22 10:46:46;;;;;;;6.35;0.93;;;;;;;10.14;81.99;98503.72;8399280;27;20052;-50
2022/11/22 10:51:26;;;;;;;1.48;0.50;;;;;;;10.24;80.95;98504.25;8399646;27;20569;-49
2022/11/22 10:55:46;;;;;;;2.95;0.60;;;;;;;10.46;80.29;98497.06;8395702;27;20047;-51
2022/11/22 11:00:16;;;;;;;3.25;0.82;;;;;;;10.49;79.93;98497.50;8385922;27;20033;-50
2022/11/22 11:04:18;;;;;;;1.35;0.40;;;;;;;10.62;78.36;98486.88;8353118;28;20233;-49
2022/11/22 11:08:30;;;;;;;2.33;0.40;;;;;;;10.94;77.98;98480.97;8357486;28;20063;-49
2022/11/22 11:12:54;;;;;;;1.67;0.45;;;;;;;11.48;75.14;98487.53;8365975;28;20036;-49
2022/11/22 11:16:55;;;;;;;;;;;;;;;11.44;73.83;98483.50;8373579;28;20051;-50
2022/11/22 11:20:56;;;;;;;1.48;0.40;;;;;;;11.15;74.79;98483.69;8361503;28;20386;-49
2022/11/22 11:25:25;;;;;;;0.65;0.30;;;;;;;10.91;76.44;98475.94;8343774;28;20104;-49
2022/11/22 11:29:50;;;;;;;2.85;0.47;;;;;;;10.68;76.53;98471.75;8364830;28;20082;-52
2022/11/22 11:33:51;;;;;;;1.25;0.38;;;;;;;10.53;77.66;98481.75;8378900;28;20036;-52
2022/11/22 11:37:55;;;;;;;3.55;0.82;;;;;;;10.74;78.24;98474.50;8375450;28;20047;-51
2022/11/22 11:41:56;;;;;;;2.95;0.45;;;;;;;10.76;77.93;98472.47;8376358;28;20040;-54
2022/11/22 11:46:16;;;;;;;2.10;0.30;;;;;;;10.73;78.92;98478.25;8375328;28;20511;-50
2022/11/22 11:50:22;;;;;;;2.85;0.40;;;;;;;10.61;78.57;98474.38;8390928;28;20051;-52
2022/11/22 11:54:44;;;;;;;1.48;0.40;;;;;;;10.67;78.31;98473.59;8379759;28;20654;-51
2022/11/22 11:58:52;;;;;;;0.47;0.20;;;;;;;10.60;76.73;98459.19;8374267;28;20083;-54
2022/11/22 12:02:59;;;;;;;0.30;0.20;;;;;;;10.60;76.27;98467.31;8373660;28;20032;-52
2022/11/22 12:07:15;;;;;;;1.08;0.25;;;;;;;10.59;76.79;98468.34;8374850;28;20103;-53
2022/11/22 12:11:22;;;;;;;1.92;0.30;;;;;;;10.59;77.93;98468.34;8371690;28;20506;-53
2022/11/22 12:15:34;;;;;;;0.82;0.35;;;;;;;10.70;76.39;98472.41;8367961;28;20028;-50
2022/11/22 12:20:01;;;;;;;0.63;0.20;;;;;;;10.56;77.61;98479.53;8386898;28;20036;-54
2022/11/22 12:28:26;;;;;;;1.25;0.52;;;;;;;10.63;77.64;98482.28;8398590;27;20406;-52
2022/11/22 12:33:02;;;;;;;0.95;0.30;;;;;;;10.51;79.42;98490.06;8353721;28;20074;-52
2022/11/22 12:37:14;;;;;;;2.00;0.30;;;;;;;10.53;79.04;98470.97;8412703;28;20040;-50
2022/11/22 12:41:20;;;;;;;0.30;0.22;;;;;;;10.54;77.70;98478.88;8414853;28;20024;-52
2022/11/22 12:45:27;;;;;;;0.22;0.22;;;;;;;10.61;77.16;98468.97;8414094;28;20032;-51
2022/11/22 12:49:50;;;;;;;0.60;0.20;;;;;;;10.69;77.99;98482.38;8413930;28;20070;-50
2022/11/22 12:53:54;;;;;;;0.30;0.30;;;;;;;10.61;77.73;98468.97;8379861;28;20068;-50
2022/11/22 12:58:20;;;;;;;0.30;0.30;;;;;;;10.79;78.07;98477.50;8363096;28;20562;-52
2022/11/22 13:02:35;;;;;;;0.85;0.57;;;;;;;10.93;77.47;98483.88;8355927;28;20033;-53
2022/11/22 13:06:55;;;;;;;0.35;0.20;;;;;;;10.92;76.29;98488.44;8352962;28;20103;-53
2022/11/22 13:11:04;;;;;;;0.28;0.22;;;;;;;10.88;76.87;98481.75;8350427;28;20035;-52
2022/11/22 13:15:10;;;;;;;0.40;0.30;;;;;;;10.80;76.35;98484.56;8344304;28;20546;-50
2022/11/22 13:19:15;;;;;;;1.77;0.35;;;;;;;10.70;76.94;98489.44;8341705;28;20044;-49
2022/11/22 13:23:35;;;;;;;;;;;;;;;10.59;77.75;98483.72;8370809;28;20068;-52
2022/11/22 13:27:43;;;;;;;0.20;0.20;;;;;;;10.67;77.65;98479.00;8350709;28;19921;-51
2022/11/22 13:32:05;;;;;;;0.45;0.30;;;;;;;10.60;78.35;98478.13;8353411;28;20052;-49
2022/11/22 13:40:44;;;;;;;1.77;0.30;;;;;;;10.54;81.14;98473.47;8341102;27;20403;-51
2022/11/22 13:49:27;;;;;;;0.28;0.20;;;;;;;10.33;82.37;98470.72;8348079;27;20394;-51
2022/11/22 13:53:31;;;;;;;0.80;0.30;;;;;;;10.26;84.10;98469.81;8316368;28;20527;-50
2022/11/22 13:57:37;;;;;;;0.63;0.20;;;;;;;10.20;85.24;98470.56;8310728;28;20360;-51
2022/11/22 14:05:55;;;;;;;0.20;0.20;;;;;;;10.32;84.49;98458.25;8340076;27;20394;-50
2022/11/22 14:09:58;;;;;;;0.40;0.17;;;;;;;10.30;84.63;98476.50;8315974;28;20506;-49
2022/11/22 14:14:11;;;;;;;0.30;0.20;;;;;;;10.23;85.50;98470.19;8311680;28;20037;-49
2022/11/22 14:18:40;;;;;;;0.20;0.10;;;;;;;10.20;85.39;98465.16;8300779;28;20049;-49
2022/11/22 14:27:25;;;;;;;0.10;0.10;;;;;;;10.39;82.87;98475.38;8346004;27;20457;-49
2022/11/22 14:31:30;;;;;;;0.52;0.20;;;;;;;10.45;82.66;98480.00;8340162;28;20042;-50
2022/11/22 14:35:35;;;;;;;0.50;0.30;;;;;;;10.36;83.00;98473.03;8343166;28;20128;-52
2022/11/22 14:39:55;;;;;;;;;;;;;;;10.33;83.31;98473.41;8328180;28;20122;-48
2022/11/22 14:44:18;;;;;;;0.30;0.20;;;;;;;10.28;84.40;98477.72;8311731;28;19917;-50
2022/11/22 14:48:24;;;;;;;0.10;0.10;;;;;;;10.27;84.09;98476.88;8377234;28;20098;-49
2022/11/22 14:52:31;;;;;;;0.95;0.20;;;;;;;10.30;84.33;98481.91;8355886;28;20430;-52
2022/11/22 14:56:34;;;;;;;0.20;0.20;;;;;;;10.30;84.36;98473.78;8344121;28;20041;-49
2022/11/22 15:00:50;;;;;;;0.20;0.20;;;;;;;10.16;85.28;98480.06;8340389;28;20038;-50
2022/11/22 15:05:18;;;;;;;0.50;0.20;;;;;;;10.21;84.93;98476.81;8317832;28;21614;-48
2022/11/22 15:18:38;;;;;;;0.20;0.20;;;;;;;10.23;86.02;98486.38;8411290;27;20394;-47
2022/11/22 15:22:40;;;;;;;0.10;0.10;;;;;;;10.17;87.10;98475.47;8409954;28;20516;-49
2022/11/22 15:26:42;;;;;;;0.38;0.30;;;;;;;10.04;87.62;98489.63;8392600;28;20040;-48
2022/11/22 15:30:44;;;;;;;0.30;0.20;;;;;;;10.10;88.03;98491.63;8354251;28;20086;-50
2022/11/22 15:34:48;;;;;;;0.17;0.17;;;;;;;9.97;88.85;98491.38;8366407;28;20106;-50
2022/11/22 15:38:48;;;;;;;0.10;0.10;;;;;;;9.92;89.70;98493.81;8372794;28;20140;-49
2022/11/22 15:42:56;;;;;;;0.65;0.20;;;;;;;9.84;90.54;98502.00;8351821;28;20033;-48
2022/11/22 15:46:56;;;;;;;2.72;0.30;;;;;;;9.88;89.82;98503.28;8346744;28;20271;-48
2022/11/22 15:51:19;;;;;;;0.30;0.30;;;;;;;9.93;89.06;98519.78;8372914;28;20083;-48
2022/11/22 15:55:22;;;;;;;0.20;0.20;;;;;;;9.94;89.09;98508.78;8359994;28;20328;-48
2022/11/22 15:59:28;;;;;;;0.28;0.20;;;;;;;9.94;89.24;98518.72;8353969;28;20453;-49
2022/11/22 16:03:36;;;;;;;0.15;0.10;;;;;;;9.89;88.86;98510.38;8345799;28;20700;-49
2022/11/22 16:07:43;;;;;;;1.33;0.17;;;;;;;9.84;89.64;98520.88;8343603;28;20052;-49
2022/11/22 16:11:44;;;;;;;0.20;0.10;;;;;;;9.81;89.85;98530.19;8335297;28;20092;-48
2022/11/22 16:16:16;;;;;;;0.20;0.20;;;;;;;9.81;90.31;98523.94;8333401;28;20045;-49
2022/11/22 16:20:29;;;;;;;0.13;0.10;;;;;;;9.72;91.20;98534.00;8335270;28;20108;-49
2022/11/22 16:24:31;;;;;;;0.47;0.35;;;;;;;9.69;91.81;98536.19;8316773;28;20544;-48
2022/11/22 16:28:34;;;;;;;0.25;0.25;;;;;;;9.72;91.42;98541.22;8319887;28;20128;-49
2022/11/22 16:32:35;;;;;;;0.75;0.30;;;;;;;9.69;92.00;98547.00;8312610;28;20059;-48
2022/11/22 16:36:36;;;;;;;1.98;0.40;;;;;;;9.76;91.58;98553.34;8289604;28;20034;-50
2022/11/22 16:40:41;;;;;;;0.28;0.20;;;;;;;9.69;91.87;98553.25;8315744;28;20042;-48
2022/11/22 16:44:42;;;;;;;2.42;0.17;;;;;;;9.78;91.99;98560.25;8313326;28;20100;-49
2022/11/22 16:48:43;;;;;;;0.20;0.20;;;;;;;9.71;92.99;98556.59;8318764;28;20133;-48
2022/11/22 16:52:44;;;;;;;0.50;0.20;;;;;;;9.73;92.58;98559.94;8317560;28;20029;-50
2022/11/22 16:56:45;;;;;;;0.47;0.10;;;;;;;9.74;92.89;98558.94;8321872;28;20042;-48
2022/11/22 17:00:47;;;;;;;0.75;0.20;;;;;;;9.69;93.25;98561.34;8319461;28;20095;-49
2022/11/22 17:04:48;;;;;;;0.57;0.40;;;;;;;9.68;94.13;98569.63;8319120;28;20055;-50
2022/11/22 17:08:51;;;;;;;1.92;0.30;;;;;;;9.65;94.67;98572.66;8323077;28;20038;-49
2022/11/22 17:12:52;;;;;;;0.77;0.40;;;;;;;9.69;94.60;98568.59;8334698;28;20029;-50
2022/11/22 17:16:53;;;;;;;1.20;0.40;;;;;;;9.68;94.98;98577.69;8321091;28;20132;-50
2022/11/22 17:20:54;;;;;;;0.20;0.20;;;;;;;9.68;95.07;98580.41;8321329;28;20037;-48
2022/11/22 17:24:54;;;;;;;2.10;0.40;;;;;;;9.67;95.79;98573.34;8320464;28;20046;-49
2022/11/22 17:28:55;;;;;;;0.38;0.35;;;;;;;9.64;96.72;98581.78;8318355;28;20095;-49
2022/11/22 17:32:55;;;;;;;0.38;0.30;;;;;;;9.59;97.12;98589.59;8338609;28;20041;-50
2022/11/22 17:36:56;;;;;;;0.30;0.30;;;;;;;9.46;99.61;98592.06;8332266;28;20044;-53
2022/11/22 17:40:59;;;;;;;2.00;0.60;;;;;;;9.42;100.00;98588.03;8300422;28;20056;-50
2022/11/22 17:45:00;;;;;;;1.75;1.00;;;;;;;9.34;100.00;98590.81;8300439;28;20081;-48
2022/11/22 17:49:02;;;;;;;0.50;0.50;;;;;;;9.42;100.00;98601.50;8300537;28;20049;-49
2022/11/22 17:53:03;;;;;;;1.13;0.60;;;;;;;9.46;100.00;98600.16;8310660;28;20073;-52
2022/11/22 17:57:04;;;;;;;1.33;0.60;;;;;;;9.51;99.61;98603.13;8319530;28;20048;-50
2022/11/22 18:01:07;;;;;;;2.15;0.50;;;;;;;9.54;99.61;98608.16;8317775;28;20053;-52
2022/11/22 18:05:08;;;;;;;1.55;0.80;;;;;;;9.51;99.78;98613.91;8318123;28;20048;-49
2022/11/22 18:09:09;;;;;;;1.33;0.57;;;;;;;9.55;98.97;98609.84;8318455;28;20152;-49
2022/11/22 18:13:10;;;;;;;0.77;0.57;;;;;;;9.61;98.71;98614.53;8318202;28;20087;-48
2022/11/22 18:17:10;;;;;;;1.42;0.70;;;;;;;9.64;97.72;98608.78;8316475;28;20044;-49
2022/11/22 18:21:12;;;;;;;0.40;0.40;;;;;;;9.65;97.48;98605.03;8318399;28;20037;-48
2022/11/22 18:25:13;;;;;;;1.92;0.80;;;;;;;9.59;97.69;98612.00;8315042;28;20491;-47
2022/11/22 18:29:14;;;;;;;1.30;0.57;;;;;;;9.59;97.60;98606.63;8313204;28;20446;-48
2022/11/22 18:33:15;;;;;;;1.70;0.57;;;;;;;9.64;96.90;98611.47;8315321;28;20045;-48
2022/11/22 18:37:15;;;;;;;0.93;0.40;;;;;;;9.67;96.95;98613.81;8313483;28;20042;-49
2022/11/22 18:41:16;;;;;;;0.40;0.40;;;;;;;9.76;96.69;98612.72;8319083;28;20348;-49
2022/11/22 18:45:17;;;;;;;1.45;0.45;;;;;;;9.70;97.22;98608.06;8314922;28;20041;-50
2022/11/22 18:49:18;;;;;;;1.58;0.52;;;;;;;9.69;97.60;98609.06;8321924;28;20048;-49
2022/11/22 18:53:18;;;;;;;1.35;0.60;;;;;;;9.67;97.90;98613.81;8319762;28;20065;-50
2022/11/22 18:57:19;;;;;;;1.33;0.50;;;;;;;9.71;98.23;98615.13;8338076;28;20054;-48
2022/11/22 19:01:23;;;;;;;1.02;0.50;;;;;;;9.81;97.49;98613.00;8317362;28;20538;-50
2022/11/22 19:05:24;;;;;;;0.93;0.60;;;;;;;9.77;97.81;98625.19;8313865;28;20475;-49
2022/11/22 19:09:24;;;;;;;1.58;0.80;;;;;;;9.71;98.21;98634.84;8324575;28;20040;-48
2022/11/22 19:13:25;;;;;;;1.10;0.77;;;;;;;9.70;98.37;98635.03;8326662;28;20457;-48
2022/11/22 19:17:26;;;;;;;0.50;0.40;;;;;;;9.81;98.06;98631.88;8350002;28;20246;-48
2022/11/22 19:21:28;;;;;;;0.65;0.50;;;;;;;9.78;97.68;98626.84;8351163;28;20045;-49
2022/11/22 19:25:29;;;;;;;0.80;0.50;;;;;;;9.75;97.93;98621.81;8350599;28;20041;-48
2022/11/22 19:29:30;;;;;;;3.35;0.80;;;;;;;9.75;97.40;98625.34;8315588;28;20052;-50
2022/11/22 19:33:32;;;;;;;3.63;0.77;;;;;;;9.79;97.19;98636.63;8312751;28;20503;-49
2022/11/22 19:37:33;;;;;;;1.33;0.73;;;;;;;9.80;97.31;98630.22;8285490;28;20165;-49
2022/11/22 19:41:33;;;;;;;2.85;0.75;;;;;;;9.80;96.68;98630.22;8293060;28;20147;-49
2022/11/22 19:45:34;;;;;;;2.22;0.77;;;;;;;9.90;96.70;98646.97;8311511;28;20049;-49
2022/11/22 19:49:35;;;;;;;1.83;1.00;;;;;;;9.83;96.46;98635.25;8306641;28;20042;-48
2022/11/22 19:53:36;;;;;;;2.65;0.70;;;;;;;9.79;96.72;98636.63;8299675;28;20038;-49
2022/11/22 19:57:37;;;;;;;3.03;1.15;;;;;;;9.65;97.06;98645.50;8289951;28;20577;-48
2022/11/22 20:01:38;;;;;;;3.42;0.90;;;;;;;9.56;97.68;98643.91;8349653;28;20041;-49
2022/11/22 20:05:40;;;;;;;2.95;0.82;;;;;;;9.44;98.33;98648.88;8321683;28;20052;-49